Time;durP1;ratioP1;P1;durP2;ratioP2;P2;SDS_P1;SDS_P2;PMS_P1;PMS_P2;Temp;Humidity;BMP_temperature;BMP_pressure;BME280_temperature;BME280_humidity;BME280_pressure;Samples;Min_cycle;Max_cycle;Signal;HPM_P1;HPM_P2
2022/04/22 00:01:16;;;;;;;15.80;8.93;;;;;;;10.05;100.00;100167.97;10211223;29;20664;-67
2022/04/22 00:06:19;;;;;;;18.27;10.17;;;;;;;10.07;100.00;100172.28;10211255;29;20553;-66
2022/04/22 00:11:32;;;;;;;16.07;9.33;;;;;;;10.04;100.00;100168.84;10211873;29;20217;-66
2022/04/22 00:16:42;;;;;;;17.60;9.33;;;;;;;10.08;100.00;100173.09;10209792;29;20985;-68
2022/04/22 00:21:47;;;;;;;18.20;10.83;;;;;;;10.07;100.00;100163.63;10212637;29;20266;-69
2022/04/22 00:26:52;;;;;;;16.80;10.20;;;;;;;10.01;100.00;100166.31;10211757;29;20232;-69
2022/04/22 00:31:56;;;;;;;20.07;10.07;;;;;;;9.99;100.00;100168.88;10210959;29;20225;-71
2022/04/22 00:37:02;;;;;;;17.80;9.67;;;;;;;10.02;100.00;100174.06;10210343;29;20247;-68
2022/04/22 00:42:11;;;;;;;15.77;9.17;;;;;;;9.99;100.00;100168.88;10210997;29;20243;-68
2022/04/22 00:47:14;;;;;;;20.00;9.57;;;;;;;9.99;100.00;100170.63;10210212;29;20568;-69
2022/04/22 00:52:19;;;;;;;19.60;9.53;;;;;;;10.00;100.00;100167.16;10215642;29;20235;-71
2022/04/22 00:57:25;;;;;;;20.13;9.87;;;;;;;10.02;100.00;100160.22;10220584;29;20688;-69
2022/04/22 01:02:28;;;;;;;16.00;8.50;;;;;;;10.03;100.00;100161.94;10218551;29;20669;-71
2022/04/22 01:12:54;;;;;;;15.30;8.33;;;;;;;9.97;100.00;100162.00;10217312;29;20216;-68
2022/04/22 01:17:57;;;;;;;15.30;7.83;;;;;;;9.95;100.00;100161.16;10217742;29;20232;-70
2022/04/22 01:23:02;;;;;;;12.10;6.77;;;;;;;9.97;100.00;100172.38;10216783;29;20251;-68
2022/04/22 01:28:07;;;;;;;12.87;7.30;;;;;;;9.94;100.00;100169.84;10216557;29;20608;-67
2022/04/22 01:33:10;;;;;;;10.87;6.20;;;;;;;9.92;100.00;100166.38;10217658;29;20221;-67
2022/04/22 01:38:15;;;;;;;12.87;5.50;;;;;;;9.83;100.00;100161.28;10218107;29;20312;-69
2022/04/22 01:43:19;;;;;;;9.83;5.10;;;;;;;9.80;100.00;100162.16;10216880;29;20217;-66
2022/04/22 01:48:22;;;;;;;9.97;5.30;;;;;;;9.85;100.00;100159.56;10216785;29;20197;-68
2022/04/22 01:53:28;;;;;;;9.10;5.03;;;;;;;9.82;100.00;100160.44;10216973;29;20300;-70
2022/04/22 01:58:38;;;;;;;9.20;5.17;;;;;;;9.79;100.00;100167.38;10215949;29;20232;-69
2022/04/22 02:03:41;;;;;;;9.53;5.10;;;;;;;9.80;100.00;100163.94;10216595;29;20625;-67
2022/04/22 02:08:48;;;;;;;9.50;4.70;;;;;;;9.72;100.00;100158.81;10216679;29;20192;-68
2022/04/22 02:13:51;;;;;;;9.37;4.40;;;;;;;9.68;100.00;100153.69;10224223;29;20633;-69
2022/04/22 02:18:54;;;;;;;7.57;4.30;;;;;;;9.63;100.00;100163.25;10221284;29;20239;-71
2022/04/22 02:23:59;;;;;;;8.67;3.77;;;;;;;9.56;100.00;100177.13;10221341;29;20243;-70
2022/04/22 02:29:02;;;;;;;8.23;3.73;;;;;;;9.59;100.00;100177.09;10220911;29;20207;-68
2022/04/22 02:34:06;;;;;;;6.10;3.20;;;;;;;9.52;100.00;100186.66;10220947;29;20644;-70
2022/04/22 02:39:10;;;;;;;7.07;3.10;;;;;;;9.55;100.00;100183.16;10220546;29;20246;-71
2022/04/22 02:49:35;;;;;;;5.30;2.20;;;;;;;9.41;100.00;100175.50;10220564;29;20198;-69
2022/04/22 02:54:40;;;;;;;5.27;2.20;;;;;;;9.46;100.00;100184.09;10220222;29;20201;-71
2022/04/22 02:59:44;;;;;;;4.13;1.80;;;;;;;9.41;100.00;100185.88;10219737;29;20217;-70
2022/04/22 03:04:48;;;;;;;5.03;1.90;;;;;;;9.29;100.00;100186.84;10219709;29;20640;-69
2022/04/22 03:09:52;;;;;;;4.73;1.90;;;;;;;9.39;100.00;100182.41;10220607;29;20201;-73
2022/04/22 03:14:56;;;;;;;4.23;1.60;;;;;;;9.39;100.00;100195.38;10218794;29;20259;-70
2022/04/22 03:19:59;;;;;;;4.67;1.63;;;;;;;9.30;100.00;100191.13;10218781;29;20243;-69
2022/04/22 03:25:06;;;;;;;4.60;2.10;;;;;;;9.32;100.00;100191.09;10218829;29;20212;-68
2022/04/22 03:30:10;;;;;;;5.73;1.90;;;;;;;9.34;100.00;100194.56;10218639;29;20670;-72
2022/04/22 03:35:13;;;;;;;5.63;2.13;;;;;;;9.35;100.00;100194.53;10219379;29;20810;-69
2022/04/22 03:40:18;;;;;;;5.13;2.20;;;;;;;9.37;100.00;100191.94;10218138;29;20308;-69
2022/04/22 03:45:22;;;;;;;4.40;2.00;;;;;;;9.38;100.00;100198.84;10217978;29;20352;-69
2022/04/22 03:50:26;;;;;;;17.27;8.63;;;;;;;9.31;100.00;100197.19;10217708;29;20221;-67
2022/04/22 03:55:31;;;;;;;3.83;1.70;;;;;;;9.34;100.00;100199.72;10217867;29;20220;-70
2022/04/22 04:00:34;;;;;;;3.30;1.53;;;;;;;9.24;100.00;100205.84;10218507;29;20228;-68
2022/04/22 04:05:37;;;;;;;6.47;1.40;;;;;;;9.25;100.00;100216.19;10217448;29;20241;-69
2022/04/22 04:16:03;;;;;;;4.70;2.50;;;;;;;9.22;100.00;100213.63;10217210;29;20234;-70
2022/04/22 04:26:38;;;;;;;3.67;1.40;;;;;;;9.20;100.00;100211.91;10217283;29;20232;-71
2022/04/22 04:31:41;;;;;;;11.23;5.27;;;;;;;9.22;100.00;100213.63;10216696;29;20207;-72
2022/04/22 04:36:45;;;;;;;4.50;1.90;;;;;;;9.32;100.00;100214.41;10216708;29;20193;-66
2022/04/22 04:41:49;;;;;;;3.87;1.60;;;;;;;9.41;100.00;100203.13;10216570;29;20239;-71
2022/04/22 04:46:53;;;;;;;17.90;8.90;;;;;;;9.47;100.00;100197.91;10216667;29;20676;-71
2022/04/22 04:51:58;;;;;;;6.70;3.00;;;;;;;9.52;100.00;100215.16;10217186;29;20224;-69
2022/04/22 04:57:02;;;;;;;6.60;3.33;;;;;;;9.50;100.00;100219.47;10216250;29;20223;-72
2022/04/22 05:02:06;;;;;;;6.47;3.53;;;;;;;9.47;100.00;100216.03;10215970;29;20229;-70
2022/04/22 05:07:09;;;;;;;5.53;3.17;;;;;;;9.47;100.00;100229.00;10216004;29;20526;-69
2022/04/22 05:12:14;;;;;;;7.13;3.43;;;;;;;9.53;100.00;100236.69;10215726;29;20225;-67
2022/04/22 05:17:17;;;;;;;7.60;4.40;;;;;;;9.54;100.00;100241.03;10216878;29;20231;-69
2022/04/22 05:22:20;;;;;;;8.07;4.10;;;;;;;9.50;100.00;100244.50;10215641;29;20248;-69
2022/04/22 05:27:25;;;;;;;10.20;5.23;;;;;;;9.54;100.00;100241.91;10215869;29;20213;-70
2022/04/22 05:32:40;;;;;;;9.80;4.83;;;;;;;9.65;100.00;100252.16;10215782;29;20224;-72
2022/04/22 05:37:48;;;;;;;8.43;5.23;;;;;;;9.75;100.00;100252.06;10219489;29;20221;-67
2022/04/22 05:42:54;;;;;;;8.37;5.13;;;;;;;9.97;100.00;100255.34;10223548;29;20307;-68
2022/04/22 05:47:57;;;;;;;9.57;5.80;;;;;;;10.06;100.00;100248.31;10222505;29;20316;-70
2022/04/22 05:53:01;;;;;;;10.10;5.07;;;;;;;10.13;100.00;100255.19;10222325;29;20221;-69
2022/04/22 05:58:06;;;;;;;7.10;4.47;;;;;;;10.23;100.00;100266.34;10221940;29;20243;-70
2022/04/22 06:03:09;;;;;;;8.80;5.23;;;;;;;10.27;100.00;100252.47;10221754;29;20554;-71
2022/04/22 06:13:35;;;;;;;7.57;4.50;;;;;;;10.34;98.37;100267.09;10221567;29;20216;-69
2022/04/22 06:18:38;;;;;;;8.33;4.70;;;;;;;10.39;95.86;100262.69;10221243;29;20232;-68
2022/04/22 06:23:41;;;;;;;6.43;3.87;;;;;;;10.39;94.82;100271.34;10220859;29;20251;-73
2022/04/22 06:28:46;;;;;;;7.20;4.03;;;;;;;10.44;93.32;100268.69;10221007;29;20545;-70
2022/04/22 06:33:50;;;;;;;8.80;4.13;;;;;;;10.49;93.36;100261.75;10222107;29;20518;-70
2022/04/22 06:38:57;;;;;;;7.63;3.90;;;;;;;10.57;93.81;100259.91;10220410;29;20263;-70
2022/04/22 06:49:24;;;;;;;7.03;3.77;;;;;;;10.82;89.24;100271.72;10219489;29;20243;-69
2022/04/22 06:54:28;;;;;;;6.03;3.30;;;;;;;10.86;85.78;100273.41;10220226;29;20221;-68
2022/04/22 06:59:33;;;;;;;6.67;3.50;;;;;;;10.88;85.59;100279.44;10220415;29;20225;-69
2022/04/22 07:04:37;;;;;;;5.90;3.83;;;;;;;10.98;85.19;100264.56;10219049;29;20223;-68
2022/04/22 07:09:42;;;;;;;6.63;3.97;;;;;;;11.15;86.05;100258.28;10219378;29;20235;-70
2022/04/22 07:14:48;;;;;;;6.93;3.77;;;;;;;11.38;81.77;100266.63;10218980;29;20280;-69
2022/04/22 07:19:55;;;;;;;6.43;3.70;;;;;;;11.48;77.83;100260.38;10216581;29;20443;-71
2022/04/22 07:24:58;;;;;;;6.63;3.60;;;;;;;11.56;79.00;100268.91;10220425;29;20535;-67
2022/04/22 07:30:05;;;;;;;5.23;3.20;;;;;;;11.52;79.27;100272.47;10218551;29;20228;-71
2022/04/22 07:35:12;;;;;;;8.83;3.97;;;;;;;11.63;77.26;100267.94;10218562;29;20236;-70
2022/04/22 07:40:19;;;;;;;6.17;3.50;;;;;;;11.78;77.37;100286.81;10218239;29;20538;-72
2022/04/22 07:51:01;;;;;;;7.67;3.70;;;;;;;11.57;74.75;100278.44;10218773;29;20228;-71
2022/04/22 07:56:05;;;;;;;5.33;3.23;;;;;;;11.68;74.91;100282.66;10217701;29;20207;-68
2022/04/22 08:01:10;;;;;;;7.83;3.13;;;;;;;11.84;74.71;100286.72;10217420;29;20247;-68
2022/04/22 08:06:13;;;;;;;4.73;2.83;;;;;;;11.93;73.67;100297.81;10217288;29;20669;-71
2022/04/22 08:11:18;;;;;;;9.80;3.30;;;;;;;12.13;72.43;100305.31;10217372;29;20257;-68
2022/04/22 08:16:24;;;;;;;6.03;3.60;;;;;;;12.12;72.29;100304.44;10217992;29;20534;-68
2022/04/22 08:21:32;;;;;;;10.63;7.13;;;;;;;12.11;70.27;100312.28;10217008;29;20319;-70
2022/04/22 08:26:36;;;;;;;7.97;4.00;;;;;;;12.04;70.09;100305.44;10216701;29;20216;-68
2022/04/22 08:31:42;;;;;;;6.43;3.47;;;;;;;12.11;70.26;100307.94;10216839;29;20287;-67
2022/04/22 08:36:47;;;;;;;6.53;3.80;;;;;;;12.05;71.79;100313.22;10216381;29;20220;-67
2022/04/22 08:41:52;;;;;;;7.00;4.07;;;;;;;12.07;72.68;100308.88;10216636;29;20261;-65
2022/04/22 08:52:19;;;;;;;7.80;4.53;;;;;;;12.00;74.23;100301.19;10215963;29;20307;-63
2022/04/22 08:57:23;;;;;;;6.87;3.47;;;;;;;12.07;71.26;100300.19;10215548;29;20244;-66
2022/04/22 09:02:29;;;;;;;6.03;3.60;;;;;;;12.40;72.59;100310.00;10215939;29;20696;-67
2022/04/22 09:07:32;;;;;;;6.00;3.47;;;;;;;12.65;68.68;100298.22;10216178;29;20311;-66
2022/04/22 09:12:36;;;;;;;6.30;4.10;;;;;;;12.56;68.37;100301.03;10217214;29;20555;-65
2022/04/22 09:17:41;;;;;;;7.17;3.80;;;;;;;12.98;68.46;100307.16;10219520;29;20231;-67
2022/04/22 09:22:45;;;;;;;5.73;3.47;;;;;;;13.34;67.76;100303.78;10219853;29;20332;-68
2022/04/22 09:27:48;;;;;;;6.63;2.73;;;;;;;13.80;64.10;100300.06;10220849;29;20220;-69
2022/04/22 09:32:53;;;;;;;5.50;3.00;;;;;;;14.13;61.92;100302.75;10223568;29;20307;-66
2022/04/22 09:43:21;;;;;;;6.83;3.80;;;;;;;13.80;63.52;100317.47;10222356;29;20239;-66
2022/04/22 09:48:26;;;;;;;7.50;4.23;;;;;;;13.58;64.64;100314.50;10222355;29;20533;-66
2022/04/22 09:53:33;;;;;;;5.87;3.73;;;;;;;13.11;63.51;100309.50;10222952;29;20233;-68
2022/04/22 09:58:37;;;;;;;7.23;3.73;;;;;;;13.07;64.89;100317.38;10222322;29;20217;-68
2022/04/22 10:03:43;;;;;;;5.77;3.23;;;;;;;13.35;65.02;100311.56;10221960;29;20224;-66
2022/04/22 10:08:46;;;;;;;5.00;3.13;;;;;;;13.56;64.08;100308.44;10221745;29;20247;-66
2022/04/22 10:13:50;;;;;;;6.83;3.60;;;;;;;14.43;61.71;100304.56;10221675;29;20233;-67
2022/04/22 10:18:55;;;;;;;5.73;3.50;;;;;;;14.39;61.11;100310.78;10221861;29;20546;-67
2022/04/22 10:23:59;;;;;;;5.77;3.03;;;;;;;14.68;58.79;100297.81;10219747;29;20664;-68
2022/04/22 10:29:04;;;;;;;6.67;3.00;;;;;;;14.71;56.24;100303.81;10220635;29;20240;-68
2022/04/22 10:34:09;;;;;;;6.47;2.70;;;;;;;14.61;57.56;100307.56;10220690;29;20247;-65
2022/04/22 10:39:32;;;;;;;4.80;2.90;;;;;;;14.92;59.06;100313.66;10220647;29;20221;-64
2022/04/22 10:50:26;;;;;;;6.23;2.80;;;;;;;14.51;56.78;100310.47;10220070;29;20597;-65
2022/04/22 10:55:31;;;;;;;5.60;2.93;;;;;;;14.83;57.06;100307.81;10219893;29;20197;-67
2022/04/22 11:00:37;;;;;;;7.10;3.20;;;;;;;15.13;58.10;100301.72;10219841;29;20657;-64
2022/04/22 11:05:47;;;;;;;5.77;2.70;;;;;;;14.71;57.70;100297.72;10219781;29;20216;-63
2022/04/22 11:11:15;;;;;;;5.87;2.50;;;;;;;14.95;57.96;100289.19;10219618;29;20211;-67
2022/04/22 11:16:29;;;;;;;4.27;2.23;;;;;;;16.18;55.25;100287.03;10219488;29;20678;-65
2022/04/22 11:21:43;;;;;;;5.23;2.30;;;;;;;16.02;54.16;100291.06;10218672;29;20714;-65
2022/04/22 11:26:47;;;;;;;5.83;2.40;;;;;;;15.30;54.39;100291.63;10219078;29;20220;-67
2022/04/22 11:32:03;;;;;;;4.97;2.73;;;;;;;14.69;57.51;100304.72;10218722;29;20231;-67
2022/04/22 11:37:18;;;;;;;5.17;2.60;;;;;;;14.24;58.54;100301.56;10217971;29;20226;-66
2022/04/22 11:42:22;;;;;;;6.03;2.93;;;;;;;14.07;59.50;100298.53;10218022;29;20665;-68
2022/04/22 11:47:25;;;;;;;5.00;2.80;;;;;;;15.23;56.88;100291.84;10217939;29;20213;-65
2022/04/22 11:52:30;;;;;;;9.40;3.60;;;;;;;16.10;56.57;100291.69;10217848;29;20312;-65
2022/04/22 11:57:40;;;;;;;6.77;3.20;;;;;;;16.45;55.47;100277.34;10218237;29;20227;-67
2022/04/22 12:08:15;;;;;;;5.60;2.97;;;;;;;14.82;58.00;100266.94;10217468;29;20232;-67
2022/04/22 12:13:19;;;;;;;6.70;3.03;;;;;;;14.64;57.70;100260.47;10217056;29;20352;-65
2022/04/22 12:18:30;;;;;;;5.20;3.00;;;;;;;16.33;54.54;100247.19;10216974;29;20228;-66
2022/04/22 12:23:36;;;;;;;6.57;2.47;;;;;;;16.95;54.55;100234.44;10217078;29;20701;-65
2022/04/22 12:28:58;;;;;;;13.07;4.83;;;;;;;16.30;53.54;100241.22;10216659;29;20221;-66
2022/04/22 12:34:03;;;;;;;4.63;2.57;;;;;;;15.15;55.84;100239.78;10216804;29;20548;-66
2022/04/22 12:39:09;;;;;;;5.63;2.70;;;;;;;14.61;57.06;100244.00;10216619;29;20228;-65
2022/04/22 12:44:13;;;;;;;9.17;3.20;;;;;;;14.40;58.48;100247.22;10216175;29;20244;-66
2022/04/22 12:54:43;;;;;;;7.17;4.13;;;;;;;14.14;57.48;100247.88;10216078;29;20231;-67
2022/04/22 12:59:49;;;;;;;5.37;2.63;;;;;;;14.18;58.57;100248.66;10216232;29;20668;-64
2022/04/22 13:04:54;;;;;;;4.90;2.80;;;;;;;14.15;57.25;100243.53;10216144;29;20217;-71
2022/04/22 13:09:59;;;;;;;5.07;2.70;;;;;;;14.37;57.01;100237.72;10216040;29;20217;-69
2022/04/22 13:15:02;;;;;;;4.73;2.27;;;;;;;14.34;56.25;100229.13;10215641;29;20227;-68
2022/04/22 13:20:07;;;;;;;4.90;2.47;;;;;;;14.27;57.79;100211.91;10215406;29;20239;-66
2022/04/22 13:25:13;;;;;;;5.40;2.73;;;;;;;14.52;57.69;100213.78;10215545;29;20221;-68
2022/04/22 13:30:17;;;;;;;6.33;2.67;;;;;;;14.25;56.72;100224.09;10215548;29;20239;-65
2022/04/22 13:35:21;;;;;;;7.33;2.77;;;;;;;13.73;56.78;100233.31;10215605;29;20224;-66
2022/04/22 13:40:26;;;;;;;5.70;2.87;;;;;;;13.54;59.69;100234.66;10215198;29;20243;-66
2022/04/22 13:56:13;;;;;;;7.83;2.47;;;;;;;13.19;58.33;100245.03;10215591;29;20224;-65
2022/04/22 14:01:16;;;;;;;6.73;2.57;;;;;;;13.13;57.67;100239.94;10222060;29;20559;-65
2022/04/22 14:06:19;;;;;;;10.23;5.00;;;;;;;13.66;56.62;100233.47;10221988;29;20213;-66
2022/04/22 14:11:27;;;;;;;7.73;3.40;;;;;;;15.52;54.25;100216.84;10221739;29;20212;-65
2022/04/22 14:16:30;;;;;;;5.47;2.47;;;;;;;15.12;54.35;100218.13;10221873;29;20232;-66
2022/04/22 14:21:33;;;;;;;4.97;2.40;;;;;;;14.99;53.44;100215.00;10222554;29;20303;-64
2022/04/22 14:26:39;;;;;;;4.50;2.03;;;;;;;14.42;56.21;100214.94;10221182;29;20275;-67
2022/04/22 14:32:03;;;;;;;6.43;2.00;;;;;;;14.05;56.44;100215.97;10221057;29;20303;-66
2022/04/22 14:37:07;;;;;;;4.07;1.93;;;;;;;15.02;53.37;100213.16;10220729;29;20231;-66
2022/04/22 14:42:11;;;;;;;5.67;2.80;;;;;;;15.73;52.19;100195.19;10220235;29;20239;-64
2022/04/22 14:47:16;;;;;;;5.10;2.27;;;;;;;15.40;54.02;100201.53;10220381;29;20537;-66
2022/04/22 14:52:20;;;;;;;4.17;2.07;;;;;;;14.75;54.77;100202.69;10220070;29;20230;-66
2022/04/22 14:57:25;;;;;;;3.90;2.07;;;;;;;14.54;54.37;100200.69;10220023;29;20227;-68
2022/04/22 15:02:28;;;;;;;4.37;2.20;;;;;;;14.27;54.67;100206.69;10219916;29;20229;-68
2022/04/22 15:07:32;;;;;;;6.33;2.37;;;;;;;13.86;56.59;100205.13;10219095;29;20693;-65
2022/04/22 15:12:38;;;;;;;4.30;2.20;;;;;;;13.58;57.44;100199.75;10219323;29;20235;-68
2022/04/22 15:28:24;;;;;;;4.03;2.00;;;;;;;12.93;58.92;100191.72;10218824;29;20530;-68
2022/04/22 15:33:28;;;;;;;10.57;3.80;;;;;;;13.14;59.72;100186.94;10218966;29;20557;-68
2022/04/22 15:38:31;;;;;;;6.70;2.87;;;;;;;13.73;59.12;100186.34;10218430;29;20291;-64
2022/04/22 15:43:39;;;;;;;3.77;1.97;;;;;;;14.15;56.71;100181.72;10218499;29;20232;-65
2022/04/22 15:48:43;;;;;;;7.60;2.63;;;;;;;14.34;55.30;100167.28;10218309;29;20575;-66
2022/04/22 15:53:46;;;;;;;6.07;2.80;;;;;;;14.21;55.56;100160.69;10217969;29;20356;-69
2022/04/22 15:58:53;;;;;;;6.40;2.13;;;;;;;14.35;55.17;100168.16;10218304;29;20212;-66
2022/04/22 16:03:57;;;;;;;6.57;2.97;;;;;;;14.25;54.53;100171.91;10217722;29;20238;-67
2022/04/22 16:09:01;;;;;;;5.00;2.17;;;;;;;13.75;56.88;100181.09;10217452;29;20217;-66
2022/04/22 16:19:27;;;;;;;5.23;2.30;;;;;;;12.87;59.15;100169.31;10216777;29;20238;-67
2022/04/22 16:24:31;;;;;;;4.27;2.13;;;;;;;12.64;61.97;100176.75;10217136;29;20234;-65
2022/04/22 16:29:37;;;;;;;8.17;2.30;;;;;;;12.72;60.31;100175.69;10216453;29;20246;-66
2022/04/22 16:34:41;;;;;;;6.60;2.07;;;;;;;12.60;60.63;100173.34;10216575;29;20307;-66
2022/04/22 16:39:44;;;;;;;4.60;2.50;;;;;;;12.47;61.46;100171.06;10216396;29;20220;-64
2022/04/22 16:44:50;;;;;;;5.10;2.30;;;;;;;12.39;63.08;100170.38;10216565;29;20569;-67
2022/04/22 16:49:53;;;;;;;6.03;2.77;;;;;;;12.23;64.09;100175.00;10216629;29;20220;-65
2022/04/22 16:54:56;;;;;;;7.43;2.43;;;;;;;12.07;64.41;100171.00;10216258;29;20730;-67
2022/04/22 17:00:01;;;;;;;3.97;2.00;;;;;;;12.14;65.09;100169.13;10216041;29;20217;-67
2022/04/22 17:05:05;;;;;;;5.10;1.90;;;;;;;12.08;62.71;100166.66;10215797;29;20235;-68
2022/04/22 17:10:09;;;;;;;3.90;1.70;;;;;;;11.95;62.58;100176.41;10216262;29;20308;-64
2022/04/22 17:25:56;;;;;;;3.47;1.30;;;;;;;11.41;64.42;100174.75;10215878;29;20319;-70
2022/04/22 17:31:01;;;;;;;3.43;1.40;;;;;;;11.42;64.05;100174.72;10215782;29;20221;-66
2022/04/22 17:36:05;;;;;;;4.97;1.63;;;;;;;11.15;66.51;100179.50;10223472;29;20538;-68
2022/04/22 17:41:08;;;;;;;11.13;5.40;;;;;;;11.10;64.03;100181.28;10223068;29;20229;-67
2022/04/22 17:46:13;;;;;;;7.43;2.47;;;;;;;10.98;68.46;100190.13;10222946;29;20275;-64
2022/04/22 17:51:16;;;;;;;5.60;2.03;;;;;;;10.78;67.97;100186.09;10222511;29;20292;-63
2022/04/22 17:56:20;;;;;;;4.77;1.83;;;;;;;10.57;69.33;100187.25;10222596;29;20680;-70
2022/04/22 18:01:25;;;;;;;20.67;13.03;;;;;;;10.57;71.27;100184.66;10222025;29;20275;-69
2022/04/22 18:06:28;;;;;;;7.63;2.93;;;;;;;10.42;74.16;100177.06;10220321;29;20227;-65
2022/04/22 18:11:32;;;;;;;5.73;2.60;;;;;;;10.38;75.75;100167.59;10219667;29;20308;-68
2022/04/22 18:16:37;;;;;;;16.57;6.70;;;;;;;10.27;77.39;100165.13;10218782;29;20686;-68
2022/04/22 18:21:41;;;;;;;6.47;4.00;;;;;;;10.21;77.14;100166.94;10219870;29;20248;-64
2022/04/22 18:26:45;;;;;;;8.33;2.27;;;;;;;10.07;75.46;100176.59;10220972;29;20569;-67
2022/04/22 18:31:52;;;;;;;6.30;2.50;;;;;;;10.01;79.10;100161.13;10220041;29;20681;-67
2022/04/22 18:36:56;;;;;;;7.17;3.00;;;;;;;9.89;80.91;100167.25;10217395;29;20561;-77
2022/04/22 18:41:59;;;;;;;9.03;2.60;;;;;;;9.78;79.13;100160.50;10219777;29;20265;-66
2022/04/22 18:47:04;;;;;;;7.27;2.70;;;;;;;9.66;80.82;100156.28;10219279;29;20221;-68
2022/04/22 18:52:08;;;;;;;5.43;2.70;;;;;;;9.49;84.27;100158.16;10217916;29;20280;-68
2022/04/22 18:57:12;;;;;;;6.47;3.53;;;;;;;9.42;85.06;100153.06;10219855;29;20560;-67
2022/04/22 19:02:17;;;;;;;6.17;3.37;;;;;;;9.30;84.32;100144.50;10219406;29;20311;-69
2022/04/22 19:07:23;;;;;;;10.20;3.50;;;;;;;9.26;86.36;100148.03;10219684;29;20548;-70
2022/04/22 19:12:29;;;;;;;13.07;3.67;;;;;;;9.18;87.78;100143.78;10219625;29;20229;-71
2022/04/22 19:17:34;;;;;;;8.73;3.63;;;;;;;9.05;87.38;100149.91;10219385;29;20227;-70
2022/04/22 19:22:38;;;;;;;10.00;4.30;;;;;;;9.00;84.31;100139.59;10217089;29;20252;-70
2022/04/22 19:27:41;;;;;;;11.03;4.77;;;;;;;8.93;86.58;100148.28;10218865;29;20229;-70
2022/04/22 19:32:47;;;;;;;12.57;6.57;;;;;;;8.88;85.64;100146.56;10217362;29;20596;-69
2022/04/22 19:43:11;;;;;;;15.43;9.30;;;;;;;8.74;87.68;100143.22;10217082;29;20250;-70
2022/04/22 19:48:17;;;;;;;17.20;9.53;;;;;;;8.74;86.96;100136.31;10217266;29;20216;-66
2022/04/22 19:53:22;;;;;;;16.83;9.27;;;;;;;8.73;88.84;100149.28;10218147;29;20225;-64
2022/04/22 19:58:25;;;;;;;20.40;9.90;;;;;;;8.76;85.89;100142.34;10218755;29;20232;-65
2022/04/22 20:03:31;;;;;;;22.20;12.30;;;;;;;8.76;85.37;100139.75;10216844;29;20228;-67
2022/04/22 20:08:35;;;;;;;26.07;13.93;;;;;;;8.64;86.18;100136.38;10217736;29;20244;-65
2022/04/22 20:13:38;;;;;;;22.93;13.53;;;;;;;8.51;86.80;100132.16;10216918;29;20295;-65
2022/04/22 20:18:45;;;;;;;20.57;12.07;;;;;;;8.58;89.10;100134.69;10217098;29;20221;-65
2022/04/22 20:23:49;;;;;;;22.53;12.07;;;;;;;8.55;91.07;100129.53;10215408;29;20233;-67
2022/04/22 20:28:52;;;;;;;22.53;11.40;;;;;;;8.49;92.35;100128.72;10216079;29;20325;-64
2022/04/22 20:33:58;;;;;;;18.37;10.30;;;;;;;8.42;91.19;100127.88;10216544;29;20225;-67
2022/04/22 20:44:22;;;;;;;19.63;10.20;;;;;;;8.37;95.23;100126.19;10215658;29;20228;-70
2022/04/22 20:49:27;;;;;;;18.03;10.57;;;;;;;8.28;93.92;100103.84;10216602;29;20615;-67
2022/04/22 20:54:30;;;;;;;21.10;10.40;;;;;;;8.33;94.28;100096.03;10216188;29;20223;-67
2022/04/22 20:59:34;;;;;;;15.87;9.67;;;;;;;8.23;95.50;100089.19;10215168;29;20213;-69
2022/04/22 21:04:38;;;;;;;17.73;10.00;;;;;;;8.15;94.67;100091.78;10215863;29;20232;-67
2022/04/22 21:09:42;;;;;;;19.30;10.00;;;;;;;8.11;96.01;100096.13;10222553;29;20304;-69
2022/04/22 21:14:45;;;;;;;18.43;10.50;;;;;;;8.08;96.28;100079.75;10223628;29;20694;-69
2022/04/22 21:19:50;;;;;;;18.03;9.80;;;;;;;8.08;96.19;100082.34;10222416;29;20565;-67
2022/04/22 21:24:53;;;;;;;18.67;9.83;;;;;;;8.07;97.40;100070.28;10223374;29;20311;-69
2022/04/22 21:29:56;;;;;;;19.67;10.30;;;;;;;7.99;98.10;100072.03;10222344;29;20221;-67
2022/04/22 21:35:01;;;;;;;24.20;10.90;;;;;;;7.97;97.51;100061.72;10222489;29;20283;-73
2022/04/22 21:40:06;;;;;;;20.57;10.60;;;;;;;7.90;98.41;100062.59;10221698;29;20639;-71
2022/04/22 21:45:09;;;;;;;21.97;11.47;;;;;;;7.91;100.00;100066.91;10222102;29;20232;-69
2022/04/22 21:50:16;;;;;;;17.73;10.40;;;;;;;7.91;100.00;100066.06;10221499;29;20225;-68
2022/04/22 21:55:20;;;;;;;19.97;10.97;;;;;;;7.91;100.00;100050.56;9904376;29;10000560;-67
2022/04/22 22:00:38;;;;;;;21.40;11.73;;;;;;;7.97;100.00;100055.72;10224042;29;20197;-65
2022/04/22 22:05:43;;;;;;;21.83;11.33;;;;;;;8.03;100.00;100060.84;10176525;29;20232;-67
2022/04/22 22:11:02;;;;;;;19.77;11.97;;;;;;;8.04;100.00;100047.91;10177080;29;20540;-66
2022/04/22 22:16:10;;;;;;;22.13;12.00;;;;;;;8.10;100.00;100045.28;10213707;29;20208;-67
2022/04/22 22:21:15;;;;;;;23.40;12.37;;;;;;;8.17;100.00;100043.53;10214959;29;20575;-65
2022/04/22 22:26:18;;;;;;;21.63;12.13;;;;;;;8.24;100.00;100034.03;10216267;29;20209;-69
2022/04/22 22:31:22;;;;;;;21.07;10.93;;;;;;;8.25;100.00;100034.03;10215310;29;20208;-67
2022/04/22 22:36:27;;;;;;;20.30;10.70;;;;;;;8.32;100.00;100030.53;10214897;29;20209;-67
2022/04/22 22:41:30;;;;;;;16.80;10.03;;;;;;;8.43;99.69;100022.72;10215449;29;20470;-70
2022/04/22 22:46:33;;;;;;;16.60;10.00;;;;;;;8.42;100.00;100008.09;10214410;29;20224;-68
2022/04/22 22:51:38;;;;;;;20.83;10.73;;;;;;;8.44;100.00;100009.78;10215323;29;20220;-68
2022/04/22 22:56:41;;;;;;;17.60;10.10;;;;;;;8.46;99.56;100008.03;10214875;29;20644;-73
2022/04/22 23:01:45;;;;;;;16.10;9.10;;;;;;;8.52;99.21;99999.38;10214172;29;20201;-69
2022/04/22 23:06:49;;;;;;;16.00;9.43;;;;;;;8.47;100.00;100001.16;10213622;29;20228;-70
2022/04/22 23:11:55;;;;;;;15.57;9.50;;;;;;;8.39;100.00;99993.44;10214306;29;20230;-68
2022/04/22 23:16:58;;;;;;;17.07;9.10;;;;;;;8.33;100.00;99998.66;10213986;29;20694;-70
2022/04/22 23:22:03;;;;;;;16.17;9.20;;;;;;;8.39;100.00;99990.84;10213102;29;20246;-68
2022/04/22 23:27:06;;;;;;;16.63;10.47;;;;;;;8.44;100.00;99983.91;10213479;29;20244;-71
2022/04/22 23:32:10;;;;;;;16.13;9.10;;;;;;;8.51;100.00;99977.00;10214000;29;20613;-70
2022/04/22 23:37:17;;;;;;;15.27;9.33;;;;;;;8.57;100.00;99969.16;10212626;29;20613;-69
2022/04/22 23:42:23;;;;;;;15.77;9.97;;;;;;;8.65;97.65;99964.78;10212454;29;20225;-72
2022/04/22 23:47:26;;;;;;;16.27;9.13;;;;;;;8.69;97.62;99963.88;10212904;29;20239;-68
2022/04/22 23:52:32;;;;;;;16.53;10.00;;;;;;;8.65;96.17;99954.44;10212278;29;20294;-71
2022/04/22 23:57:37;;;;;;;17.10;9.10;;;;;;;8.72;94.86;99951.78;10211631;29;20315;-71
